Time;durP1;ratioP1;P1;durP2;ratioP2;P2;SDS_P1;SDS_P2;PMS_P1;PMS_P2;Temp;Humidity;BMP_temperature;BMP_pressure;BME280_temperature;BME280_humidity;BME280_pressure;Samples;Min_cycle;Max_cycle;Signal;HPM_P1;HPM_P2
2023/06/05 00:00:06;;;;;;;13.80;6.33;;;;;;;5.63;54.28;100446.66;1686600;83;21176;-60
2023/06/05 00:02:34;;;;;;;9.83;5.70;;;;;;;5.59;54.39;100440.64;1667127;84;21628;-63
2023/06/05 00:05:01;;;;;;;14.63;5.83;;;;;;;5.56;54.55;100445.02;1666373;84;21124;-63
2023/06/05 00:07:28;;;;;;;12.53;6.25;;;;;;;5.50;54.57;100438.20;1663747;84;21080;-63
2023/06/05 00:09:54;;;;;;;15.48;8.03;;;;;;;5.46;54.56;100446.91;1681804;83;21114;-61
2023/06/05 00:12:20;;;;;;;28.35;13.00;;;;;;;5.46;54.55;100445.61;1655093;84;21068;-59
2023/06/05 00:14:46;;;;;;;10.32;6.92;;;;;;;5.44;54.69;100448.66;1642795;84;21112;-59
2023/06/05 00:17:13;;;;;;;19.45;6.75;;;;;;;5.40;54.80;100446.97;1667117;84;21081;-63
2023/06/05 00:19:43;;;;;;;13.20;4.72;;;;;;;5.35;54.80;100444.47;1685537;84;21021;-61
2023/06/05 00:22:11;;;;;;;9.65;4.40;;;;;;;5.33;55.06;100445.36;1655052;85;21396;-60
2023/06/05 00:24:39;;;;;;;12.25;5.67;;;;;;;5.29;55.54;100447.56;1635505;86;21136;-58
2023/06/05 00:27:05;;;;;;;8.55;5.40;;;;;;;5.27;55.43;100445.45;1683059;83;21009;-59
2023/06/05 00:29:31;;;;;;;7.67;4.70;;;;;;;5.25;55.48;100447.20;1681032;84;21059;-59
2023/06/05 00:31:57;;;;;;;10.38;4.90;;;;;;;5.26;55.55;100447.61;1680919;83;21081;-60
2023/06/05 00:34:23;;;;;;;11.30;5.35;;;;;;;5.27;55.71;100446.75;1688730;83;21065;-58
2023/06/05 00:36:52;;;;;;;8.80;5.33;;;;;;;5.28;55.64;100444.57;1685834;83;21180;-62
2023/06/05 00:39:20;;;;;;;7.83;4.37;;;;;;;5.28;55.67;100447.16;1686577;83;21560;-63
2023/06/05 00:41:46;;;;;;;11.40;4.78;;;;;;;5.27;55.98;100450.64;1672827;84;21924;-59
2023/06/05 00:44:12;;;;;;;7.93;5.10;;;;;;;5.29;56.14;100444.56;1661239;84;21086;-58
2023/06/05 00:46:39;;;;;;;13.90;4.95;;;;;;;5.32;56.25;100438.45;1660426;84;21176;-58
2023/06/05 00:49:08;;;;;;;8.63;5.35;;;;;;;5.32;56.22;100446.22;1692546;83;21095;-58
2023/06/05 00:51:35;;;;;;;9.78;5.78;;;;;;;5.30;56.37;100440.23;1683878;84;21054;-58
2023/06/05 00:54:03;;;;;;;12.95;7.00;;;;;;;5.25;56.30;100442.88;1682147;83;21018;-58
2023/06/05 00:56:29;;;;;;;7.70;5.60;;;;;;;5.19;56.44;100450.73;1686128;83;21062;-58
2023/06/05 00:58:58;;;;;;;7.85;5.47;;;;;;;5.13;56.46;100443.91;1693838;83;21568;-58
2023/06/05 01:01:28;;;;;;;13.95;6.03;;;;;;;5.08;56.52;100443.11;1686262;83;22433;-59
2023/06/05 01:03:53;;;;;;;16.85;7.78;;;;;;;5.03;56.72;100441.45;1689158;83;21099;-58
2023/06/05 01:06:19;;;;;;;51.05;27.05;;;;;;;4.95;56.71;100438.95;1681605;83;21062;-59
2023/06/05 01:08:46;;;;;;;24.72;14.87;;;;;;;4.92;56.98;100439.00;1685200;83;21357;-58
2023/06/05 01:11:19;;;;;;;19.80;11.80;;;;;;;4.94;57.00;100445.02;1678882;83;21376;-58
2023/06/05 01:13:50;;;;;;;23.35;10.38;;;;;;;4.88;56.77;100437.34;1662988;84;21104;-59
2023/06/05 01:16:16;;;;;;;14.00;8.13;;;;;;;4.80;56.89;100439.16;1659095;84;21510;-59
2023/06/05 01:18:45;;;;;;;20.90;12.75;;;;;;;4.83;57.03;100441.71;1626476;87;21086;-59
2023/06/05 01:21:13;;;;;;;20.72;12.30;;;;;;;4.89;57.28;100444.22;1649253;86;21175;-59
2023/06/05 01:23:44;;;;;;;25.43;14.33;;;;;;;4.94;57.42;100441.98;1625865;87;21044;-60
2023/06/05 01:26:16;;;;;;;10.03;7.22;;;;;;;5.01;57.77;100444.05;1630030;86;21082;-59
2023/06/05 01:28:50;;;;;;;9.18;5.67;;;;;;;5.05;57.79;100448.33;1613264;87;21069;-59
2023/06/05 01:31:19;;;;;;;11.05;6.72;;;;;;;5.00;57.57;100437.17;1635307;86;21596;-61
2023/06/05 01:33:58;;;;;;;9.20;5.87;;;;;;;4.97;57.52;100451.89;1633822;86;21067;-60
2023/06/05 01:36:26;;;;;;;8.55;5.65;;;;;;;4.92;57.58;100444.17;1651901;84;21144;-60
2023/06/05 01:38:54;;;;;;;12.45;6.67;;;;;;;4.86;57.66;100442.96;1663792;84;21100;-63
2023/06/05 01:41:25;;;;;;;8.95;5.92;;;;;;;4.77;57.79;100442.64;1658303;84;21113;-61
2023/06/05 01:43:59;;;;;;;9.63;4.55;;;;;;;4.74;57.86;100447.00;1609540;86;21548;-59
2023/06/05 01:46:24;;;;;;;8.85;4.67;;;;;;;4.71;57.88;100440.98;1644507;85;21018;-59
2023/06/05 01:48:51;;;;;;;10.15;4.83;;;;;;;4.70;57.90;100447.05;1629132;86;21065;-60
2023/06/05 01:51:17;;;;;;;10.23;5.55;;;;;;;4.68;58.03;100442.31;1609435;87;21050;-62
2023/06/05 01:53:48;;;;;;;8.67;4.83;;;;;;;4.68;58.07;100440.17;1655927;85;21128;-59
2023/06/05 01:56:14;;;;;;;8.50;4.53;;;;;;;4.68;58.08;100441.02;1649467;85;21096;-64
2023/06/05 01:58:44;;;;;;;8.08;4.65;;;;;;;4.69;58.22;100442.72;1659987;84;21119;-62
2023/06/05 02:01:10;;;;;;;9.68;4.75;;;;;;;4.67;58.44;100439.29;1633531;86;21062;-64
2023/06/05 02:03:40;;;;;;;10.48;5.22;;;;;;;4.68;58.41;100433.27;1633286;86;21077;-60
2023/06/05 02:06:09;;;;;;;7.90;4.87;;;;;;;4.67;58.51;100435.41;1602669;86;21077;-61
2023/06/05 02:08:35;;;;;;;11.40;5.27;;;;;;;4.65;58.64;100439.77;1649106;85;21001;-59
2023/06/05 02:11:09;;;;;;;11.40;7.08;;;;;;;4.63;58.68;100429.87;1630694;84;21078;-60
2023/06/05 02:13:33;;;;;;;10.68;6.75;;;;;;;4.65;58.70;100429.42;1667394;84;21645;-61
2023/06/05 02:16:00;;;;;;;9.55;5.78;;;;;;;4.66;58.93;100424.66;1667438;84;21067;-61
2023/06/05 02:18:29;;;;;;;8.43;5.05;;;;;;;4.65;58.88;100428.13;1670668;84;21045;-61
2023/06/05 02:20:56;;;;;;;6.87;4.78;;;;;;;4.63;58.92;100428.58;1665804;84;21585;-59
2023/06/05 02:23:23;;;;;;;12.43;6.50;;;;;;;4.62;58.90;100435.05;1669673;84;21075;-62
2023/06/05 02:25:49;;;;;;;12.70;6.85;;;;;;;4.59;59.03;100425.59;1670462;84;21757;-59
2023/06/05 02:28:16;;;;;;;11.43;6.05;;;;;;;4.60;59.21;100429.91;1670247;84;21114;-59
2023/06/05 02:30:44;;;;;;;10.83;6.30;;;;;;;4.62;59.19;100419.52;1668311;84;21050;-59
2023/06/05 02:33:12;;;;;;;12.55;5.47;;;;;;;4.62;59.33;100425.58;1666632;84;21086;-59
2023/06/05 02:35:39;;;;;;;6.80;4.95;;;;;;;4.60;59.35;100429.91;1669785;84;21102;-59
2023/06/05 02:38:06;;;;;;;7.20;5.20;;;;;;;4.59;59.42;100420.41;1666585;84;21075;-63
2023/06/05 02:40:32;;;;;;;7.90;4.75;;;;;;;4.59;59.55;100428.17;1651822;84;21568;-59
2023/06/05 02:43:05;;;;;;;9.00;5.47;;;;;;;4.62;59.69;100424.28;1669005;84;21095;-61
2023/06/05 02:45:34;;;;;;;8.98;5.30;;;;;;;4.65;59.66;100420.37;1667604;84;21637;-59
2023/06/05 02:48:00;;;;;;;16.17;10.25;;;;;;;4.69;59.78;100429.79;1665982;84;21145;-61
2023/06/05 02:50:28;;;;;;;14.70;7.28;;;;;;;4.77;59.85;100427.56;1666220;84;21072;-58
2023/06/05 02:52:55;;;;;;;9.43;6.53;;;;;;;4.84;59.92;100426.59;1667940;84;21128;-59
2023/06/05 02:55:21;;;;;;;9.28;5.53;;;;;;;4.90;59.97;100425.22;1664479;84;21542;-58
2023/06/05 02:57:48;;;;;;;7.93;5.27;;;;;;;4.98;60.06;100425.97;1653327;85;21046;-58
2023/06/05 03:00:16;;;;;;;9.20;5.90;;;;;;;5.08;60.22;100427.58;1663942;84;21160;-58
2023/06/05 03:02:48;;;;;;;9.35;5.20;;;;;;;5.15;60.13;100434.80;1652626;85;21099;-58
2023/06/05 03:05:12;;;;;;;7.00;4.62;;;;;;;5.21;60.14;100429.98;1628359;86;21071;-58
2023/06/05 03:07:40;;;;;;;7.53;5.35;;;;;;;5.31;60.23;100435.45;1671367;84;21493;-58
2023/06/05 03:10:07;;;;;;;;;;;;;;;5.39;60.24;100421.97;1674414;84;21059;-58
2023/06/05 03:12:33;;;;;;;5.70;4.05;;;;;;;5.45;60.27;100423.16;1673056;83;20214;-59
2023/06/05 03:15:01;;;;;;;7.05;4.65;;;;;;;5.52;60.11;100426.09;1684028;83;21120;-58
2023/06/05 03:17:28;;;;;;;;;;;;;;;5.57;60.05;100425.59;1690937;83;21121;-59
2023/06/05 03:19:55;;;;;;;7.47;4.90;;;;;;;5.61;60.35;100423.34;1685537;83;20220;-59
2023/06/05 03:22:24;;;;;;;13.13;4.55;;;;;;;5.69;60.28;100427.56;1661571;85;21149;-59
2023/06/05 03:24:51;;;;;;;12.95;5.25;;;;;;;5.72;60.34;100423.18;1662793;86;21173;-59
2023/06/05 03:27:18;;;;;;;6.62;4.15;;;;;;;5.77;60.46;100418.78;1686749;83;21150;-59
2023/06/05 03:29:44;;;;;;;8.68;5.25;;;;;;;5.86;60.60;100425.55;1684858;84;21022;-59
2023/06/05 03:32:10;;;;;;;8.75;5.10;;;;;;;5.98;60.67;100422.77;1684245;83;22307;-58
2023/06/05 03:34:42;;;;;;;10.03;4.67;;;;;;;6.09;60.86;100422.59;1688776;83;21069;-62
2023/06/05 03:37:08;;;;;;;7.33;4.25;;;;;;;6.22;60.92;100428.42;1655404;84;21644;-59
2023/06/05 03:39:34;;;;;;;11.83;4.87;;;;;;;6.35;61.07;100416.91;1684060;83;21100;-64
2023/06/05 03:42:02;;;;;;;6.17;3.92;;;;;;;6.45;61.04;100421.05;1680539;83;21116;-64
2023/06/05 03:44:28;;;;;;;21.55;6.53;;;;;;;6.55;61.01;100413.94;1680903;83;21116;-58
2023/06/05 03:46:55;;;;;;;23.15;10.70;;;;;;;6.67;61.22;100421.94;1682826;84;21073;-60
2023/06/05 03:49:22;;;;;;;20.10;6.72;;;;;;;6.81;61.37;100416.02;1685599;84;21649;-64
2023/06/05 03:51:52;;;;;;;19.25;6.37;;;;;;;6.94;61.50;100420.05;1674015;84;21084;-60
2023/06/05 03:54:24;;;;;;;11.15;4.72;;;;;;;7.10;61.58;100421.03;1649474;85;21092;-65
2023/06/05 03:56:50;;;;;;;13.38;4.55;;;;;;;7.24;61.48;100415.09;1635820;85;21121;-61
2023/06/05 03:59:19;;;;;;;24.32;7.10;;;;;;;7.36;61.45;100419.98;1688422;84;22296;-58
2023/06/05 04:01:45;;;;;;;9.50;4.65;;;;;;;7.49;61.59;100414.53;1662139;84;21055;-60
2023/06/05 04:04:11;;;;;;;9.57;4.57;;;;;;;7.64;61.74;100407.66;1658737;85;21073;-59
2023/06/05 04:06:41;;;;;;;6.47;4.90;;;;;;;7.81;61.77;100414.62;1688311;83;21080;-61
2023/06/05 04:09:11;;;;;;;12.35;5.12;;;;;;;7.95;61.74;100413.39;1684076;83;21038;-61
2023/06/05 04:11:43;;;;;;;11.45;5.25;;;;;;;8.11;61.84;100414.71;1678358;83;21053;-59
2023/06/05 04:14:10;;;;;;;8.68;4.95;;;;;;;8.27;61.92;100412.12;1686752;83;21082;-59
2023/06/05 04:16:45;;;;;;;10.35;5.62;;;;;;;8.44;62.14;100412.99;1684656;83;21121;-58
2023/06/05 04:19:10;;;;;;;9.23;4.62;;;;;;;8.60;61.97;100410.83;1662433;84;21059;-58
2023/06/05 04:21:38;;;;;;;9.75;4.95;;;;;;;8.76;62.13;100407.31;1689530;83;21593;-59
2023/06/05 04:24:08;;;;;;;11.03;4.20;;;;;;;8.97;62.18;100409.77;1660885;84;21145;-59
2023/06/05 04:26:41;;;;;;;6.85;3.75;;;;;;;9.17;62.03;100414.38;1664601;84;20997;-59
2023/06/05 04:29:13;;;;;;;8.13;3.25;;;;;;;9.35;61.95;100412.94;1666700;85;21189;-59
2023/06/05 04:31:36;;;;;;;4.47;3.05;;;;;;;9.54;62.00;100408.85;1687639;84;21645;-59
2023/06/05 04:34:05;;;;;;;6.90;2.47;;;;;;;9.73;62.06;100410.88;1654532;85;21572;-59
2023/06/05 04:36:32;;;;;;;9.28;3.27;;;;;;;9.91;61.97;100412.86;1685530;83;21038;-59
2023/06/05 04:39:00;;;;;;;5.30;2.95;;;;;;;10.12;61.95;100406.53;1683789;83;21089;-58
2023/06/05 04:41:29;;;;;;;11.25;3.35;;;;;;;10.29;61.89;100405.52;1685920;83;21664;-59
2023/06/05 04:43:56;;;;;;;8.30;3.22;;;;;;;10.48;61.97;100406.58;1682292;83;21057;-59
2023/06/05 04:46:23;;;;;;;7.00;3.47;;;;;;;10.70;61.96;100405.80;1679604;83;21074;-59
2023/06/05 04:48:52;;;;;;;8.53;3.27;;;;;;;10.90;62.01;100407.21;1680558;83;21053;-59
2023/06/05 04:51:18;;;;;;;8.48;3.90;;;;;;;11.12;62.05;100403.78;1680939;83;21555;-59
2023/06/05 04:53:44;;;;;;;10.47;4.43;;;;;;;11.34;62.06;100402.47;1685295;83;21593;-59
2023/06/05 04:56:11;;;;;;;14.65;6.95;;;;;;;11.56;62.17;100405.08;1682525;83;21647;-60
2023/06/05 04:58:37;;;;;;;7.95;4.37;;;;;;;12.03;62.20;100403.61;1681407;83;21036;-59
2023/06/05 05:01:06;;;;;;;11.28;3.62;;;;;;;12.03;62.20;100403.61;1683997;83;21188;-65
2023/06/05 05:03:35;;;;;;;6.60;3.55;;;;;;;12.25;61.93;100406.16;1680073;83;21074;-64
2023/06/05 05:06:02;;;;;;;13.43;4.30;;;;;;;12.48;61.98;100403.84;1677923;83;21459;-64
2023/06/05 05:08:31;;;;;;;11.77;4.27;;;;;;;12.67;61.97;100393.41;1657649;84;21132;-62
2023/06/05 05:10:57;;;;;;;12.88;4.03;;;;;;;12.96;61.80;100398.61;1681423;83;21067;-60
2023/06/05 05:13:27;;;;;;;12.37;4.20;;;;;;;13.17;61.81;100394.98;1681805;84;21083;-60
2023/06/05 05:15:55;;;;;;;17.98;3.75;;;;;;;13.40;61.61;100394.39;1685374;84;21019;-59
2023/06/05 05:18:22;;;;;;;11.08;3.72;;;;;;;13.60;61.31;100395.57;1669868;83;21147;-61
2023/06/05 05:20:48;;;;;;;14.83;3.35;;;;;;;13.83;61.26;100396.20;1664009;84;21779;-60
2023/06/05 05:23:17;;;;;;;16.37;4.03;;;;;;;14.01;60.79;100388.73;1662445;84;22485;-60
2023/06/05 05:25:47;;;;;;;13.40;3.67;;;;;;;14.18;60.75;100393.12;1690919;83;21113;-60
2023/06/05 05:28:14;;;;;;;26.05;3.90;;;;;;;14.35;60.56;100392.24;1684356;83;21029;-60
2023/06/05 05:30:40;;;;;;;;;;;;;;;14.51;60.42;100401.02;1685095;84;21133;-61
2023/06/05 05:33:07;;;;;;;10.03;4.28;;;;;;;14.69;59.81;100393.95;1683855;84;20111;-61
2023/06/05 05:35:34;;;;;;;10.63;2.70;;;;;;;14.86;59.50;100398.30;1653475;85;21093;-60
2023/06/05 05:38:00;;;;;;;4.10;1.92;;;;;;;15.02;58.88;100397.48;1689956;83;21037;-60
2023/06/05 05:40:27;;;;;;;9.27;2.93;;;;;;;15.20;59.00;100399.08;1661403;85;21095;-60
2023/06/05 05:42:53;;;;;;;5.87;1.87;;;;;;;15.37;57.96;100400.77;1688030;83;21029;-60
2023/06/05 05:45:20;;;;;;;1.02;0.80;;;;;;;15.55;57.46;100401.52;1659351;84;21097;-60
2023/06/05 05:47:46;;;;;;;5.30;1.37;;;;;;;15.70;57.20;100403.30;1687355;83;21096;-66
2023/06/05 05:50:13;;;;;;;4.58;0.90;;;;;;;15.86;56.71;100397.52;1687929;83;21444;-65
2023/06/05 05:52:39;;;;;;;6.08;0.95;;;;;;;16.03;56.28;100408.86;1685590;83;21543;-63
2023/06/05 05:55:07;;;;;;;11.75;1.37;;;;;;;16.18;56.43;100406.62;1689110;83;20979;-62
2023/06/05 05:57:34;;;;;;;9.20;4.28;;;;;;;16.37;55.39;100397.63;1660370;84;21552;-62
2023/06/05 06:00:00;;;;;;;1.72;0.75;;;;;;;16.66;54.82;100408.53;1687893;83;21066;-61
2023/06/05 06:02:26;;;;;;;1.10;0.82;;;;;;;16.66;54.82;100408.53;1684158;83;21078;-61
2023/06/05 06:04:53;;;;;;;4.42;1.47;;;;;;;16.76;54.58;100403.11;1684053;84;21179;-61
2023/06/05 06:07:19;;;;;;;6.12;0.85;;;;;;;16.90;54.27;100406.68;1684271;83;21137;-61
2023/06/05 06:09:46;;;;;;;3.83;1.07;;;;;;;17.04;53.90;100405.81;1685872;83;21140;-62
2023/06/05 06:12:13;;;;;;;1.22;1.00;;;;;;;17.13;53.59;100406.06;1659045;84;21008;-62
2023/06/05 06:14:41;;;;;;;53.35;4.00;;;;;;;17.29;53.29;100397.19;1661315;84;21067;-63
2023/06/05 06:17:10;;;;;;;1.98;0.70;;;;;;;17.46;53.05;100404.85;1653707;84;21078;-63
2023/06/05 06:19:37;;;;;;;3.25;1.00;;;;;;;17.62;52.76;100404.23;1626879;86;21676;-63
2023/06/05 06:22:11;;;;;;;2.55;1.10;;;;;;;17.80;52.35;100401.34;1663879;84;21053;-63
2023/06/05 06:24:37;;;;;;;28.00;2.50;;;;;;;18.02;52.05;100402.91;1659534;85;22312;-62
2023/06/05 06:27:10;;;;;;;4.05;1.10;;;;;;;18.21;51.52;100401.68;1661941;84;21066;-65
2023/06/05 06:29:54;;;;;;;2.70;0.72;;;;;;;18.31;51.06;100400.08;1667330;85;21002;-63
2023/06/05 06:34:57;;;;;;;1.87;0.70;;;;;;;18.48;50.49;100407.69;1705012;82;21194;-69
2023/06/05 06:37:26;;;;;;;1.65;0.60;;;;;;;18.37;50.30;100409.39;1760587;80;21059;-71
2023/06/05 06:39:52;;;;;;;3.02;1.17;;;;;;;18.44;50.16;100407.55;1765186;80;21334;-71
2023/06/05 06:42:19;;;;;;;2.37;1.40;;;;;;;18.79;49.42;100408.22;1765156;80;21071;-71
2023/06/05 06:44:47;;;;;;;4.08;1.00;;;;;;;19.16;48.65;100408.27;1736536;80;21124;-69
2023/06/05 06:47:17;;;;;;;1.52;0.90;;;;;;;19.58;48.58;100410.06;1762490;80;21042;-71
2023/06/05 06:52:18;;;;;;;16.90;1.35;;;;;;;20.93;48.96;100403.73;1703852;82;21113;-70
2023/06/05 06:54:45;;;;;;;1.27;1.00;;;;;;;21.72;48.65;100409.69;1688236;83;21649;-72
2023/06/05 06:57:24;;;;;;;1.65;0.70;;;;;;;22.54;47.71;100408.50;1680747;83;22375;-70
2023/06/05 06:59:48;;;;;;;4.55;1.20;;;;;;;22.60;46.73;100407.61;1703238;82;21715;-69
2023/06/05 07:02:19;;;;;;;2.40;1.02;;;;;;;23.21;46.76;100409.73;1702067;82;21071;-69
2023/06/05 07:04:48;;;;;;;2.77;0.90;;;;;;;24.27;46.87;100406.73;1669184;83;21727;-68
2023/06/05 07:07:17;;;;;;;34.58;2.98;;;;;;;25.53;46.19;100407.99;1695423;82;21082;-70
2023/06/05 07:09:48;;;;;;;6.50;2.35;;;;;;;26.62;45.12;100405.50;1700753;82;21066;-70
2023/06/05 07:12:20;;;;;;;9.53;1.25;;;;;;;27.65;44.33;100396.78;1711516;82;21122;-70
2023/06/05 07:14:43;;;;;;;11.40;2.00;;;;;;;28.75;43.87;100400.66;1695389;83;21848;-70
2023/06/05 07:17:10;;;;;;;4.20;1.50;;;;;;;29.86;43.22;100393.31;1692622;82;21069;-70
2023/06/05 07:19:38;;;;;;;8.95;1.25;;;;;;;30.93;42.62;100392.52;1701735;82;21444;-70
2023/06/05 07:22:13;;;;;;;3.22;0.90;;;;;;;31.71;41.41;100396.79;1667787;83;21053;-70
2023/06/05 07:24:46;;;;;;;1.50;1.00;;;;;;;32.86;40.47;100397.38;1695645;83;21042;-68
2023/06/05 07:27:09;;;;;;;4.28;1.17;;;;;;;33.58;39.74;100396.80;1697715;83;21095;-69
2023/06/05 07:29:37;;;;;;;5.80;1.05;;;;;;;34.73;38.83;100393.75;1689749;82;21430;-69
2023/06/05 07:32:15;;;;;;;3.70;0.98;;;;;;;35.76;37.81;100393.59;1687422;83;21627;-70
2023/06/05 07:34:52;;;;;;;10.35;1.20;;;;;;;36.19;36.83;100392.84;1686991;83;21178;-70
2023/06/05 07:37:18;;;;;;;9.53;1.20;;;;;;;37.11;35.84;100388.75;1698056;83;21627;-69
2023/06/05 07:39:44;;;;;;;30.05;2.80;;;;;;;37.84;34.54;100387.63;1689530;82;21078;-71
2023/06/05 07:42:13;;;;;;;10.08;2.58;;;;;;;38.46;33.12;100391.27;1699604;82;21054;-70
2023/06/05 07:44:38;;;;;;;2.17;1.05;;;;;;;38.72;31.91;100395.88;1694917;82;21107;-70
2023/06/05 07:47:05;;;;;;;2.55;1.10;;;;;;;38.78;30.72;100399.00;1709094;83;21129;-70
2023/06/05 07:49:32;;;;;;;1.95;0.70;;;;;;;39.10;28.97;100398.55;1743842;80;21565;-70
2023/06/05 07:51:58;;;;;;;5.85;0.90;;;;;;;39.94;29.13;100388.27;1761555;80;20995;-71
2023/06/05 07:54:29;;;;;;;3.95;0.80;;;;;;;40.98;28.30;100388.86;1758164;80;21626;-74
2023/06/05 07:56:57;;;;;;;3.70;0.78;;;;;;;41.73;27.17;100386.27;1734271;80;21052;-74
2023/06/05 07:59:27;;;;;;;73.85;5.67;;;;;;;42.52;26.00;100387.32;1761342;79;20978;-71
2023/06/05 08:01:55;;;;;;;3.52;1.07;;;;;;;43.18;24.90;100389.48;1759919;80;21073;-70
2023/06/05 08:04:26;;;;;;;3.37;1.20;;;;;;;42.95;23.13;100382.56;1757416;80;21140;-70
2023/06/05 08:06:52;;;;;;;6.20;1.05;;;;;;;42.90;23.31;100386.92;1754701;80;21061;-70
2023/06/05 08:09:19;;;;;;;14.83;1.30;;;;;;;43.86;22.44;100383.72;1755468;80;21056;-69
2023/06/05 08:11:45;;;;;;;7.17;1.30;;;;;;;44.25;21.59;100378.41;1760413;80;21074;-70
2023/06/05 08:14:14;;;;;;;5.30;1.15;;;;;;;44.35;20.64;100377.59;1759668;80;21059;-70
2023/06/05 08:16:40;;;;;;;3.65;0.90;;;;;;;43.05;20.36;100382.56;1759485;79;21488;-70
2023/06/05 08:19:10;;;;;;;3.58;1.30;;;;;;;44.29;19.74;100379.51;1759584;80;21155;-70
2023/06/05 08:21:38;;;;;;;4.67;1.00;;;;;;;45.00;19.00;100375.60;1731932;81;21056;-71
2023/06/05 08:24:06;;;;;;;10.03;1.87;;;;;;;45.83;18.52;100379.37;1760377;80;21792;-70
2023/06/05 08:26:34;;;;;;;75.60;12.80;;;;;;;46.14;17.86;100379.06;1777549;78;20982;-71
2023/06/05 08:29:02;;;;;;;6.85;1.87;;;;;;;46.40;17.15;100380.41;1758036;80;21898;-69
2023/06/05 08:31:28;;;;;;;6.12;1.30;;;;;;;46.46;16.57;100380.34;1760390;79;21616;-69
2023/06/05 08:33:55;;;;;;;10.90;1.92;;;;;;;46.43;16.44;100379.81;1739954;79;207930;-70
2023/06/05 08:36:24;;;;;;;62.62;9.20;;;;;;;46.46;15.82;100378.97;1734001;82;21041;-68
2023/06/05 08:38:49;;;;;;;7.08;1.40;;;;;;;46.99;15.30;100373.27;1732831;81;21108;-68
2023/06/05 08:41:19;;;;;;;5.00;1.25;;;;;;;47.06;14.89;100370.98;1728090;82;21032;-68
2023/06/05 08:43:45;;;;;;;4.03;1.32;;;;;;;46.91;14.64;100372.56;1711675;81;21116;-66
2023/06/05 08:46:15;;;;;;;6.83;1.37;;;;;;;46.39;14.17;100369.11;1735242;82;21072;-68
2023/06/05 08:48:46;;;;;;;5.37;1.30;;;;;;;46.53;14.10;100374.73;1734438;80;21068;-70
2023/06/05 08:51:14;;;;;;;8.00;1.62;;;;;;;47.06;13.73;100369.61;1732086;82;21073;-70
2023/06/05 08:53:44;;;;;;;6.30;1.25;;;;;;;47.62;13.46;100371.44;1734228;81;21527;-68
2023/06/05 08:56:11;;;;;;;4.58;1.47;;;;;;;48.10;13.20;100370.28;1728427;82;21091;-67
2023/06/05 08:58:43;;;;;;;8.53;1.40;;;;;;;49.09;12.81;100370.64;1733657;82;21694;-70
2023/06/05 09:01:12;;;;;;;3.95;1.30;;;;;;;49.36;12.33;100364.98;1733296;81;21069;-69
2023/06/05 09:03:39;;;;;;;4.03;1.62;;;;;;;49.16;11.94;100373.23;1734388;82;21835;-71
2023/06/05 09:06:15;;;;;;;7.10;1.60;;;;;;;49.05;11.80;100367.11;1735404;81;21504;-72
2023/06/05 09:08:41;;;;;;;4.58;1.42;;;;;;;48.60;11.79;100373.95;1735607;82;21036;-69
2023/06/05 09:11:31;;;;;;;7.60;1.40;;;;;;;48.66;11.63;100365.53;1735642;81;21781;-71
2023/06/05 09:14:01;;;;;;;3.85;1.52;;;;;;;48.45;11.31;100363.17;1701241;83;21126;-68
2023/06/05 09:16:44;;;;;;;5.45;1.40;;;;;;;48.24;11.11;100371.11;1680633;84;21104;-69
2023/06/05 09:19:15;;;;;;;6.25;1.32;;;;;;;48.06;10.93;100370.05;1682372;84;21429;-69
2023/06/05 09:21:45;;;;;;;3.00;1.40;;;;;;;48.11;10.88;100364.41;1682653;83;21121;-69
2023/06/05 09:24:22;;;;;;;2.80;1.32;;;;;;;48.39;10.79;100361.65;1674267;83;21077;-71
2023/06/05 09:26:56;;;;;;;2.42;1.30;;;;;;;48.63;10.51;100363.64;1675908;83;21097;-70
2023/06/05 09:29:35;;;;;;;423.88;32.85;;;;;;;48.69;10.42;100362.14;1675258;84;21056;-72
2023/06/05 09:32:10;;;;;;;8.10;1.65;;;;;;;48.26;10.39;100363.87;1676047;84;21089;-71
2023/06/05 09:34:39;;;;;;;7.03;1.40;;;;;;;48.76;10.23;100356.39;1667175;83;21093;-70
2023/06/05 09:37:09;;;;;;;10.25;1.60;;;;;;;48.69;9.96;100357.98;1657284;85;21005;-69
2023/06/05 09:42:16;;;;;;;4.95;1.77;;;;;;;49.73;10.10;100351.81;1600495;87;21096;-69
2023/06/05 09:44:45;;;;;;;5.17;1.50;;;;;;;50.07;9.76;100345.58;1626215;87;21066;-69
2023/06/05 09:47:13;;;;;;;3.25;1.70;;;;;;;50.02;9.78;100353.24;1621772;87;21048;-64
2023/06/05 09:49:50;;;;;;;6.87;1.30;;;;;;;49.71;9.49;100351.30;1626548;85;21090;-68
2023/06/05 09:52:15;;;;;;;6.72;1.98;;;;;;;49.75;9.71;100343.99;1655718;85;21059;-68
2023/06/05 09:54:46;;;;;;;4.92;1.65;;;;;;;49.05;9.33;100342.73;1657213;85;21042;-68
2023/06/05 09:57:15;;;;;;;6.30;1.98;;;;;;;48.82;9.33;100347.39;1665743;85;21059;-71
2023/06/05 09:59:57;;;;;;;9.58;1.60;;;;;;;49.85;9.50;100343.69;1662972;85;21244;-68
2023/06/05 10:02:29;;;;;;;6.42;1.70;;;;;;;50.34;9.04;100338.98;1666577;85;21070;-68
2023/06/05 10:04:59;;;;;;;25.02;2.77;;;;;;;49.98;8.62;100334.22;1659203;85;21146;-68
2023/06/05 10:07:26;;;;;;;4.65;1.95;;;;;;;49.94;8.63;100333.48;1656732;85;21086;-67
2023/06/05 10:09:54;;;;;;;5.03;1.60;;;;;;;50.14;8.51;100331.24;1662535;85;21066;-68
2023/06/05 10:12:22;;;;;;;25.68;3.00;;;;;;;49.74;8.50;100336.78;1662498;85;21703;-69
2023/06/05 10:14:54;;;;;;;4.83;1.57;;;;;;;49.75;8.49;100330.11;1660609;85;21026;-69
2023/06/05 10:17:21;;;;;;;4.95;1.92;;;;;;;49.93;8.43;100328.20;1654835;85;21013;-68
2023/06/05 10:19:47;;;;;;;3.80;1.40;;;;;;;50.52;8.46;100319.54;1661806;85;21627;-68
2023/06/05 10:22:17;;;;;;;4.35;1.50;;;;;;;51.19;8.38;100324.59;1638332;85;21504;-68
2023/06/05 10:24:58;;;;;;;7.78;1.70;;;;;;;52.20;8.36;100314.30;1655937;85;21108;-68
2023/06/05 10:27:42;;;;;;;18.12;2.65;;;;;;;52.96;8.09;100318.77;1663951;85;22379;-68
2023/06/05 10:30:35;;;;;;;4.37;1.95;;;;;;;52.70;7.88;100314.05;1652243;85;22271;-68
2023/06/05 10:33:09;;;;;;;5.23;1.90;;;;;;;52.54;7.93;100307.66;1656771;85;21627;-68
2023/06/05 10:35:51;;;;;;;10.20;3.15;;;;;;;52.77;7.93;100311.50;1656163;85;21092;-69
2023/06/05 10:38:27;;;;;;;3.95;2.00;;;;;;;52.99;7.82;100309.72;1653403;85;21568;-69
2023/06/05 10:40:58;;;;;;;23.70;2.72;;;;;;;53.31;7.69;100312.05;1654985;85;21095;-70
2023/06/05 10:43:31;;;;;;;9.40;2.00;;;;;;;53.17;7.58;100313.77;1656736;85;21063;-70
2023/06/05 10:46:17;;;;;;;3.20;1.75;;;;;;;53.11;7.45;100311.77;1697966;82;21054;-70
2023/06/05 10:49:11;;;;;;;18.23;2.60;;;;;;;53.39;7.55;100307.78;1708806;82;21120;-69
2023/06/05 10:51:48;;;;;;;8.63;1.80;;;;;;;53.47;7.04;100304.63;1708587;82;21632;-69
2023/06/05 10:54:25;;;;;;;6.83;2.00;;;;;;;52.99;7.20;100306.92;1745175;80;21085;-69
2023/06/05 10:57:01;;;;;;;4.53;1.42;;;;;;;52.95;7.03;100297.63;1717437;82;21165;-70
2023/06/05 10:59:36;;;;;;;17.65;2.35;;;;;;;51.90;6.85;100301.78;1711165;82;21564;-69
2023/06/05 11:02:12;;;;;;;3.65;1.67;;;;;;;50.88;6.89;100300.34;1715457;82;21533;-69
2023/06/05 11:04:55;;;;;;;10.10;1.75;;;;;;;50.30;6.87;100294.92;1715517;82;21081;-69
2023/06/05 11:07:26;;;;;;;;;;;;;;;49.57;6.97;100291.72;1716534;82;21065;-68
2023/06/05 11:10:08;;;;;;;11.03;2.15;;;;;;;48.56;6.76;100298.13;1714963;82;20175;-69
2023/06/05 11:12:46;;;;;;;5.58;1.40;;;;;;;47.54;6.90;100300.22;1714633;82;21108;-70
2023/06/05 11:15:31;;;;;;;6.72;1.30;;;;;;;46.85;7.14;100292.50;1707404;82;21050;-70
2023/06/05 11:17:59;;;;;;;30.52;2.47;;;;;;;46.08;7.29;100289.17;1714886;82;21069;-69
2023/06/05 11:20:29;;;;;;;7.47;1.95;;;;;;;46.26;7.60;100281.45;1719295;81;21038;-71
2023/06/05 11:23:01;;;;;;;3.42;1.40;;;;;;;44.56;7.22;100281.37;1708185;82;21737;-71
2023/06/05 11:25:30;;;;;;;3.62;1.05;;;;;;;41.50;7.71;100282.78;1714650;82;21034;-71
2023/06/05 11:28:17;;;;;;;7.03;1.20;;;;;;;39.75;8.23;100283.31;1715383;82;21144;-71
2023/06/05 11:30:43;;;;;;;2.50;0.95;;;;;;;39.68;8.77;100285.35;1710060;82;21053;-71
2023/06/05 11:33:13;;;;;;;5.53;1.35;;;;;;;39.52;8.84;100286.20;1715437;82;21559;-71
2023/06/05 11:35:42;;;;;;;4.47;0.93;;;;;;;39.82;9.24;100283.95;1709552;82;22396;-70
2023/06/05 11:38:17;;;;;;;4.97;1.22;;;;;;;38.92;9.21;100281.66;1708863;82;21104;-70
2023/06/05 11:40:46;;;;;;;2.75;0.90;;;;;;;37.19;9.79;100271.33;1713753;82;21557;-70
2023/06/05 11:43:19;;;;;;;4.25;1.10;;;;;;;36.25;9.93;100268.23;1706926;82;21027;-70